KLBX

Texas Gulf Coast Regional Airport

Angleton/Lake Jackson, Texas, USA
METAR KLBX 230053Z AUTO 01009KT 10SM -RA OVC050 18/13 A3012 RMK AO2 RAB42 SLP199 P0000 T01780133
Observed Flight Rules
Oct-23 @ 00:53 UTC (46 minutes ago) Visual Flight Rules
Wind Visibility Clouds Conditions
10° at 9 knots 10 miles
  • Overcast at 5,000' AGL
  • Light Rain
Temperatures Readings Precipitation
Current 18°C / 64°F
Dewpoint 13°C / 55°F
Humidity 73%
Altimeter 30.12" Hg
Pressure 1019.9 hPa
Elevation 6
Current Rain 0.005
METAR KLBX 230053Z AUTO 01009KT 10SM -RA OVC050 18/13 A3012 RMK AO2 RAB42 SLP199 P0000 T01780133
Observed Flight Rules
Oct-23 @ 00:53 UTC
(46 minutes ago)
VFR
Wind Visibility
10° at 9 knots 10 miles
Clouds
  • Overcast at 5,000' AGL
Conditions
  • Light Rain
Temperature Dewpoint
18°C / 64°F 13°C / 55°F
Humidity Altimeter Pressure
73% 30.12" Hg 1019.9 hPa
Current Rain
0.005